Time;durP1;ratioP1;P1;durP2;ratioP2;P2;SDS_P1;SDS_P2;PMS_P1;PMS_P2;Temp;Humidity;BMP_temperature;BMP_pressure;BME280_temperature;BME280_humidity;BME280_pressure;Samples;Min_cycle;Max_cycle;Signal;HPM_P1;HPM_P2
2022/09/16 00:00:23;;;;;;;;;5.00;3.67;;;;;;;;5117973;27;45366;-77
2022/09/16 00:02:51;;;;;;;;;3.75;2.75;;;;;;;;5117728;27;45354;-78
2022/09/16 00:05:16;;;;;;;;;3.00;3.00;;;;;;;;5117684;27;46534;-78
2022/09/16 00:07:41;;;;;;;;;3.00;3.00;;;;;;;;5117391;27;45590;-78
2022/09/16 00:10:06;;;;;;;;;3.00;3.00;;;;;;;;5118161;27;45360;-78
2022/09/16 00:12:31;;;;;;;;;5.00;3.67;;;;;;;;5117686;27;45451;-79
2022/09/16 00:14:57;;;;;;;;;3.67;2.67;;;;;;;;5117941;27;45492;-78
2022/09/16 00:17:22;;;;;;;;;3.33;3.33;;;;;;;;5114672;27;45339;-78
2022/09/16 00:19:48;;;;;;;;;3.00;3.00;;;;;;;;5102821;27;45314;-78
2022/09/16 00:22:13;;;;;;;;;2.33;2.33;;;;;;;;5117468;27;45333;-78
2022/09/16 00:24:39;;;;;;;;;2.00;2.00;;;;;;;;5117029;27;46158;-78
2022/09/16 00:27:04;;;;;;;;;2.00;2.00;;;;;;;;5106943;27;45463;-79
2022/09/16 00:29:29;;;;;;;;;3.33;3.33;;;;;;;;5113818;27;45458;-78
2022/09/16 00:31:54;;;;;;;;;2.00;2.00;;;;;;;;5113262;27;45476;-78
2022/09/16 00:34:20;;;;;;;;;4.00;3.33;;;;;;;;5096669;27;45940;-79
2022/09/16 00:36:45;;;;;;;;;2.33;2.33;;;;;;;;5103153;27;45394;-78
2022/09/16 00:39:10;;;;;;;;;3.00;3.00;;;;;;;;5117815;27;45464;-78
2022/09/16 00:41:36;;;;;;;;;6.00;3.00;;;;;;;;5117451;27;45423;-78
2022/09/16 00:44:03;;;;;;;;;2.00;2.00;;;;;;;;5117179;27;46430;-77
2022/09/16 00:46:37;;;;;;;;;2.67;2.67;;;;;;;;5110947;27;45532;-78
2022/09/16 00:49:28;;;;;;;;;2.67;2.67;;;;;;;;5117087;27;45353;-78
2022/09/16 00:51:58;;;;;;;;;2.00;2.00;;;;;;;;5113588;27;45487;-78
2022/09/16 00:54:24;;;;;;;;;2.67;2.33;;;;;;;;5116948;27;46146;-78
2022/09/16 00:56:52;;;;;;;;;3.00;3.00;;;;;;;;5117177;27;45326;-78
2022/09/16 00:59:20;;;;;;;;;2.00;2.00;;;;;;;;5111032;27;45363;-79
2022/09/16 01:01:46;;;;;;;;;4.00;2.67;;;;;;;;5108528;27;45388;-78
2022/09/16 01:04:23;;;;;;;;;2.67;2.67;;;;;;;;5116346;27;45978;-78
2022/09/16 01:06:48;;;;;;;;;4.00;3.00;;;;;;;;5117206;27;45544;-78
2022/09/16 01:09:14;;;;;;;;;2.33;2.33;;;;;;;;5102284;27;45880;-79
2022/09/16 01:11:39;;;;;;;;;3.00;3.00;;;;;;;;5116621;27;45515;-79
2022/09/16 01:16:57;;;;;;;;;3.00;3.00;;;;;;;;5106865;27;45500;-78
2022/09/16 01:19:33;;;;;;;;;3.00;3.00;;;;;;;;5113263;27;45391;-78
2022/09/16 01:22:07;;;;;;;;;3.00;3.00;;;;;;;;5116706;27;45508;-78
2022/09/16 01:24:48;;;;;;;;;3.33;3.33;;;;;;;;5116418;27;45463;-80
2022/09/16 01:27:19;;;;;;;;;4.00;2.33;;;;;;;;5116558;27;45464;-79
2022/09/16 01:30:05;;;;;;;;;3.67;3.67;;;;;;;;5116601;27;45385;-79
2022/09/16 01:32:48;;;;;;;;;3.00;3.00;;;;;;;;5111006;27;45419;-79
2022/09/16 01:35:26;;;;;;;;;2.00;2.00;;;;;;;;5117108;27;46036;-79
2022/09/16 01:38:20;;;;;;;;;4.00;3.00;;;;;;;;5110908;27;45351;-79
2022/09/16 01:40:49;;;;;;;;;1.33;1.33;;;;;;;;5056555;28;45419;-78
2022/09/16 01:43:14;;;;;;;;;3.00;3.00;;;;;;;;5056310;28;45523;-78
2022/09/16 01:45:53;;;;;;;;;2.00;2.00;;;;;;;;5050630;28;46034;-78
2022/09/16 01:48:26;;;;;;;;;2.33;2.33;;;;;;;;5055980;28;45468;-79
2022/09/16 01:50:59;;;;;;;;;2.00;2.00;;;;;;;;5028749;28;45349;-77
2022/09/16 01:53:29;;;;;;;;;2.33;2.00;;;;;;;;5056369;28;45412;-78
2022/09/16 01:56:03;;;;;;;;;3.00;3.00;;;;;;;;5055908;28;45346;-77
2022/09/16 01:58:36;;;;;;;;;3.00;1.67;;;;;;;;5056024;28;45423;-79
2022/09/16 02:01:05;;;;;;;;;3.00;1.67;;;;;;;;5056170;28;45412;-78
2022/09/16 02:03:35;;;;;;;;;3.00;3.00;;;;;;;;5055648;28;45334;-78
2022/09/16 02:06:13;;;;;;;;;1.33;1.33;;;;;;;;5055934;28;47038;-78
2022/09/16 02:08:41;;;;;;;;;3.00;2.00;;;;;;;;5043212;28;45417;-78
2022/09/16 02:11:09;;;;;;;;;3.00;2.00;;;;;;;;5054842;28;45746;-79
2022/09/16 02:13:39;;;;;;;;;1.67;1.67;;;;;;;;5056319;28;45405;-78
2022/09/16 02:16:07;;;;;;;;;1.67;1.67;;;;;;;;5054483;27;47197;-78
2022/09/16 02:18:35;;;;;;;;;2.00;2.00;;;;;;;;5108792;27;45381;-78
2022/09/16 02:21:03;;;;;;;;;1.33;1.00;;;;;;;;5119444;27;45342;-78
2022/09/16 02:23:32;;;;;;;;;2.00;2.00;;;;;;;;5119694;27;45362;-78
2022/09/16 02:25:59;;;;;;;;;2.00;2.00;;;;;;;;5119093;27;45479;-78
2022/09/16 02:28:30;;;;;;;;;2.00;2.00;;;;;;;;5119396;27;45455;-78
2022/09/16 02:30:57;;;;;;;;;2.00;2.00;;;;;;;;5119525;27;45362;-78
2022/09/16 02:33:24;;;;;;;;;2.00;2.00;;;;;;;;5104414;27;45349;-78
2022/09/16 02:35:51;;;;;;;;;1.67;1.67;;;;;;;;5115295;27;46175;-79
2022/09/16 02:38:21;;;;;;;;;5.00;3.33;;;;;;;;5113435;27;45323;-79
2022/09/16 02:40:50;;;;;;;;;2.00;2.00;;;;;;;;5119443;27;45334;-78
2022/09/16 02:43:15;;;;;;;;;2.00;2.00;;;;;;;;5118538;27;45619;-78
2022/09/16 02:45:59;;;;;;;;;2.00;2.00;;;;;;;;5113396;27;46077;-73
2022/09/16 02:48:27;;;;;;;;;1.33;1.33;;;;;;;;5119257;27;45352;-79
2022/09/16 02:50:59;;;;;;;;;1.00;1.00;;;;;;;;5091106;27;45628;-78
2022/09/16 02:53:39;;;;;;;;;2.00;2.00;;;;;;;;5119184;27;45329;-79
2022/09/16 02:56:20;;;;;;;;;2.00;2.00;;;;;;;;5105641;27;47207;-78
2022/09/16 02:58:46;;;;;;;;;2.00;2.00;;;;;;;;5118698;27;45445;-79
2022/09/16 03:01:12;;;;;;;;;2.00;2.00;;;;;;;;5118676;27;45326;-79
2022/09/16 03:03:37;;;;;;;;;2.00;2.00;;;;;;;;5118929;27;45379;-78
2022/09/16 03:06:08;;;;;;;;;2.67;2.33;;;;;;;;5118592;27;45302;-78
2022/09/16 03:08:34;;;;;;;;;2.00;2.00;;;;;;;;5118838;27;45350;-78
2022/09/16 03:11:05;;;;;;;;;2.33;1.67;;;;;;;;5118671;27;45333;-78
2022/09/16 03:13:41;;;;;;;;;2.00;1.00;;;;;;;;5118982;27;45497;-78
2022/09/16 03:16:11;;;;;;;;;4.00;3.00;;;;;;;;5118257;27;46154;-78
2022/09/16 03:18:36;;;;;;;;;2.67;1.00;;;;;;;;5113657;27;45591;-78
2022/09/16 03:21:22;;;;;;;;;2.67;2.67;;;;;;;;5103827;27;45450;-78
2022/09/16 03:23:59;;;;;;;;;2.00;2.00;;;;;;;;5118136;27;45514;-77
2022/09/16 03:26:43;;;;;;;;;1.00;1.00;;;;;;;;5118231;27;47368;-78
2022/09/16 03:29:26;;;;;;;;;3.67;2.33;;;;;;;;5118357;27;45367;-78
2022/09/16 03:32:10;;;;;;;;;1.33;1.33;;;;;;;;5089665;27;45371;-78
2022/09/16 03:34:38;;;;;;;;;1.67;1.67;;;;;;;;5110235;27;45387;-78
2022/09/16 03:37:06;;;;;;;;;4.00;3.00;;;;;;;;5089725;27;47114;-78
2022/09/16 03:39:32;;;;;;;;;2.00;2.00;;;;;;;;5118187;27;45398;-78
2022/09/16 03:42:01;;;;;;;;;3.00;3.00;;;;;;;;5118041;27;45340;-78
2022/09/16 03:44:34;;;;;;;;;2.67;2.67;;;;;;;;5108441;27;45460;-78
2022/09/16 03:46:59;;;;;;;;;4.33;3.00;;;;;;;;5110266;27;45377;-78
2022/09/16 03:49:24;;;;;;;;;1.33;1.33;;;;;;;;5118129;27;45279;-78
2022/09/16 03:51:49;;;;;;;;;2.00;2.00;;;;;;;;5117985;27;45309;-79
2022/09/16 03:54:14;;;;;;;;;2.00;2.00;;;;;;;;5088338;27;45449;-78
2022/09/16 03:56:40;;;;;;;;;1.67;1.67;;;;;;;;5118140;27;46317;-78
2022/09/16 03:59:05;;;;;;;;;1.00;1.00;;;;;;;;5117357;27;45743;-79
2022/09/16 04:01:30;;;;;;;;;2.00;2.00;;;;;;;;5117952;27;45363;-79
2022/09/16 04:03:55;;;;;;;;;2.00;2.00;;;;;;;;5117516;27;45429;-77
2022/09/16 04:06:20;;;;;;;;;1.00;1.00;;;;;;;;5117894;27;46158;-78
2022/09/16 04:08:46;;;;;;;;;1.00;1.00;;;;;;;;5118187;27;45512;-78
2022/09/16 04:11:11;;;;;;;;;4.00;3.00;;;;;;;;5117614;27;45341;-78
2022/09/16 04:13:36;;;;;;;;;1.67;1.00;;;;;;;;5117673;27;45341;-77
2022/09/16 04:16:02;;;;;;;;;3.33;2.00;;;;;;;;5117659;27;46085;-78
2022/09/16 04:18:31;;;;;;;;;1.00;1.00;;;;;;;;5113984;27;45411;-78
2022/09/16 04:20:57;;;;;;;;;3.00;3.00;;;;;;;;5117500;27;45378;-78
2022/09/16 04:23:24;;;;;;;;;2.00;2.00;;;;;;;;5117244;27;45520;-78
2022/09/16 04:25:56;;;;;;;;;1.00;1.00;;;;;;;;5117221;27;46346;-78
2022/09/16 04:28:21;;;;;;;;;2.00;2.00;;;;;;;;5090020;27;45381;-78
2022/09/16 04:30:46;;;;;;;;;2.00;2.00;;;;;;;;5117621;27;45375;-79
2022/09/16 04:33:11;;;;;;;;;2.00;1.67;;;;;;;;5102736;27;45306;-78
2022/09/16 04:35:37;;;;;;;;;1.00;1.00;;;;;;;;5115049;27;45542;-78
2022/09/16 04:38:02;;;;;;;;;2.00;2.00;;;;;;;;5110194;27;45423;-78
2022/09/16 04:40:27;;;;;;;;;1.00;1.00;;;;;;;;5102881;27;45311;-78
2022/09/16 04:42:52;;;;;;;;;6.00;3.67;;;;;;;;5117014;27;45297;-78
2022/09/16 04:45:18;;;;;;;;;2.00;2.00;;;;;;;;5112944;27;46546;-79
2022/09/16 04:47:44;;;;;;;;;2.33;2.33;;;;;;;;5098722;27;45550;-78
2022/09/16 04:50:09;;;;;;;;;1.00;1.00;;;;;;;;5117115;27;45287;-78
2022/09/16 04:52:35;;;;;;;;;2.67;1.67;;;;;;;;5117180;27;45466;-78
2022/09/16 04:55:00;;;;;;;;;1.67;1.00;;;;;;;;5117145;27;45658;-78
2022/09/16 04:57:32;;;;;;;;;2.00;2.00;;;;;;;;5116892;27;45525;-78
2022/09/16 04:59:57;;;;;;;;;1.00;1.00;;;;;;;;5117200;27;45394;-78
2022/09/16 05:02:22;;;;;;;;;2.00;2.00;;;;;;;;5116527;27;45504;-78
2022/09/16 05:04:47;;;;;;;;;1.67;1.67;;;;;;;;5116940;27;46163;-78
2022/09/16 05:07:13;;;;;;;;;1.00;1.00;;;;;;;;5116838;27;45371;-77
2022/09/16 05:09:38;;;;;;;;;1.67;1.67;;;;;;;;5117291;27;45530;-78
2022/09/16 05:12:03;;;;;;;;;1.67;1.67;;;;;;;;5103860;27;45402;-78
2022/09/16 05:14:28;;;;;;;;;1.00;1.00;;;;;;;;5115126;27;45775;-78
2022/09/16 05:16:54;;;;;;;;;4.00;2.00;;;;;;;;5117011;27;45561;-79
2022/09/16 05:19:19;;;;;;;;;2.33;1.67;;;;;;;;5108733;27;45386;-78
2022/09/16 05:21:44;;;;;;;;;1.33;1.33;;;;;;;;5116192;27;45615;-79
2022/09/16 05:24:10;;;;;;;;;1.00;1.00;;;;;;;;5116637;27;46147;-78
2022/09/16 05:26:37;;;;;;;;;2.00;2.00;;;;;;;;5116353;27;45330;-79
2022/09/16 05:29:07;;;;;;;;;3.00;1.67;;;;;;;;5116689;27;45241;-79
2022/09/16 05:31:34;;;;;;;;;2.00;2.00;;;;;;;;5115677;27;45286;-78
2022/09/16 05:34:00;;;;;;;;;3.00;1.67;;;;;;;;5102999;27;47227;-79
2022/09/16 05:36:27;;;;;;;;;2.00;2.00;;;;;;;;5107595;27;45339;-79
2022/09/16 05:38:52;;;;;;;;;1.00;1.00;;;;;;;;5116030;27;45347;-78
2022/09/16 05:41:18;;;;;;;;;2.00;1.00;;;;;;;;5116208;27;46118;-78
2022/09/16 05:43:43;;;;;;;;;1.00;1.00;;;;;;;;5098374;27;45496;-78
2022/09/16 05:46:12;;;;;;;;;2.00;2.00;;;;;;;;5098605;27;45287;-80
2022/09/16 05:48:37;;;;;;;;;2.00;2.00;;;;;;;;5112067;27;45460;-79
2022/09/16 05:51:03;;;;;;;;;2.33;1.33;;;;;;;;5108826;27;45460;-79
2022/09/16 05:53:30;;;;;;;;;2.00;2.00;;;;;;;;5095819;27;48095;-79
2022/09/16 05:55:55;;;;;;;;;3.33;1.00;;;;;;;;5115478;27;45386;-78
2022/09/16 05:58:20;;;;;;;;;1.33;1.00;;;;;;;;5116490;27;45343;-78
2022/09/16 06:00:45;;;;;;;;;1.67;1.67;;;;;;;;5116269;27;45498;-78
2022/09/16 06:03:11;;;;;;;;;1.67;1.67;;;;;;;;5115917;27;46302;-78
2022/09/16 06:05:36;;;;;;;;;3.33;1.67;;;;;;;;5116063;27;45369;-79
2022/09/16 06:08:01;;;;;;;;;1.00;1.00;;;;;;;;5098035;27;45339;-79
2022/09/16 06:10:26;;;;;;;;;1.33;1.33;;;;;;;;5116114;27;45361;-77
2022/09/16 06:12:51;;;;;;;;;2.00;2.00;;;;;;;;5110633;27;46025;-79
2022/09/16 06:15:16;;;;;;;;;1.67;1.67;;;;;;;;5106852;27;45326;-79
2022/09/16 06:17:42;;;;;;;;;1.00;1.00;;;;;;;;5102781;27;45432;-78
2022/09/16 06:20:12;;;;;;;;;3.00;2.00;;;;;;;;5112525;27;45362;-78
2022/09/16 06:22:38;;;;;;;;;3.00;1.33;;;;;;;;5113265;27;46150;-78
2022/09/16 06:25:04;;;;;;;;;4.00;1.00;;;;;;;;5098604;27;45525;-79
2022/09/16 06:27:30;;;;;;;;;2.00;2.00;;;;;;;;5113046;27;45369;-78
2022/09/16 06:29:55;;;;;;;;;1.67;1.67;;;;;;;;5113440;27;45536;-78
2022/09/16 06:32:20;;;;;;;;;2.67;2.67;;;;;;;;5102912;27;45349;-78
2022/09/16 06:34:45;;;;;;;;;2.00;2.00;;;;;;;;5098648;27;45410;-78
2022/09/16 06:37:12;;;;;;;;;1.33;1.33;;;;;;;;5108679;27;45280;-78
2022/09/16 06:39:37;;;;;;;;;1.00;1.00;;;;;;;;5119205;27;45312;-78
2022/09/16 06:42:02;;;;;;;;;1.67;1.67;;;;;;;;5115446;27;45993;-79
2022/09/16 06:44:27;;;;;;;;;2.00;1.00;;;;;;;;5108046;27;45409;-78
2022/09/16 06:46:53;;;;;;;;;1.00;1.00;;;;;;;;5118919;27;45332;-79
2022/09/16 06:49:18;;;;;;;;;2.00;2.00;;;;;;;;5119226;27;45433;-78
2022/09/16 06:51:43;;;;;;;;;1.67;1.67;;;;;;;;5119019;27;46060;-79
2022/09/16 06:54:09;;;;;;;;;1.67;1.67;;;;;;;;5118630;27;45409;-78
2022/09/16 06:56:36;;;;;;;;;3.00;3.00;;;;;;;;5119137;27;45328;-78
2022/09/16 06:59:02;;;;;;;;;3.00;1.33;;;;;;;;5118980;27;45375;-78
2022/09/16 07:01:28;;;;;;;;;2.00;1.00;;;;;;;;5118626;27;47113;-79
2022/09/16 07:03:54;;;;;;;;;1.67;1.67;;;;;;;;5118348;27;45460;-77
2022/09/16 07:06:20;;;;;;;;;1.67;1.67;;;;;;;;5119154;27;45382;-78
2022/09/16 07:08:45;;;;;;;;;2.00;1.00;;;;;;;;5099973;27;45502;-79
2022/09/16 07:11:18;;;;;;;;;2.00;2.00;;;;;;;;5112836;27;46314;-79
2022/09/16 07:13:44;;;;;;;;;2.00;2.00;;;;;;;;5110922;27;45370;-78
2022/09/16 07:16:10;;;;;;;;;1.00;1.00;;;;;;;;5104339;27;45350;-79
2022/09/16 07:18:36;;;;;;;;;1.33;1.33;;;;;;;;5118804;27;45400;-79
2022/09/16 07:21:09;;;;;;;;;1.00;1.00;;;;;;;;5110322;27;46098;-79
2022/09/16 07:23:35;;;;;;;;;2.00;2.00;;;;;;;;5107376;27;45289;-79
2022/09/16 07:26:03;;;;;;;;;2.00;2.00;;;;;;;;5103869;27;45380;-79
2022/09/16 07:28:29;;;;;;;;;1.00;1.00;;;;;;;;5118533;27;45352;-79
2022/09/16 07:30:54;;;;;;;;;2.00;2.00;;;;;;;;5118609;27;45394;-78
2022/09/16 07:33:19;;;;;;;;;2.00;2.00;;;;;;;;5103352;27;45480;-77
2022/09/16 07:35:44;;;;;;;;;1.00;1.00;;;;;;;;5114939;27;45184;-79
2022/09/16 07:38:10;;;;;;;;;1.67;1.67;;;;;;;;5111894;27;45284;-77
2022/09/16 07:40:39;;;;;;;;;1.67;1.67;;;;;;;;5117918;27;45298;-79
2022/09/16 07:43:04;;;;;;;;;2.33;2.33;;;;;;;;5118243;27;45356;-78
2022/09/16 07:45:29;;;;;;;;;3.00;2.33;;;;;;;;5118177;27;45405;-79
2022/09/16 07:47:55;;;;;;;;;2.00;2.00;;;;;;;;5113409;27;45437;-79
2022/09/16 07:50:20;;;;;;;;;1.33;1.00;;;;;;;;5113374;27;47280;-80
2022/09/16 07:52:45;;;;;;;;;1.33;1.33;;;;;;;;5118340;27;45382;-79
2022/09/16 07:55:11;;;;;;;;;2.67;1.00;;;;;;;;5085861;27;45835;-78
2022/09/16 07:57:36;;;;;;;;;1.00;1.00;;;;;;;;5117594;27;45485;-78
2022/09/16 08:00:02;;;;;;;;;1.00;1.00;;;;;;;;5105707;27;45390;-77
2022/09/16 08:02:28;;;;;;;;;1.00;1.00;;;;;;;;5114989;27;45354;-79
2022/09/16 08:04:53;;;;;;;;;5.67;3.00;;;;;;;;5117686;27;45353;-76
2022/09/16 08:07:18;;;;;;;;;1.00;1.00;;;;;;;;5116287;27;45787;-76
2022/09/16 08:09:43;;;;;;;;;2.00;2.00;;;;;;;;5086408;27;47300;-77
2022/09/16 08:12:09;;;;;;;;;2.00;2.00;;;;;;;;5117874;27;45353;-78
2022/09/16 08:14:35;;;;;;;;;2.67;2.00;;;;;;;;5102972;27;45471;-76
2022/09/16 08:17:00;;;;;;;;;4.00;1.00;;;;;;;;5118055;27;45592;-79
2022/09/16 08:19:26;;;;;;;;;2.67;1.00;;;;;;;;5117212;27;45911;-79
2022/09/16 08:21:51;;;;;;;;;1.00;1.00;;;;;;;;5108927;27;45433;-78
2022/09/16 08:24:16;;;;;;;;;1.33;1.33;;;;;;;;5112558;27;45372;-79
2022/09/16 08:26:41;;;;;;;;;3.00;1.00;;;;;;;;5117651;27;45427;-80
2022/09/16 08:29:06;;;;;;;;;2.67;2.67;;;;;;;;5117389;27;45974;-79
2022/09/16 08:31:32;;;;;;;;;2.33;2.33;;;;;;;;5116205;27;45427;-77
2022/09/16 08:33:57;;;;;;;;;2.00;2.00;;;;;;;;5103658;27;45381;-78
2022/09/16 08:36:23;;;;;;;;;1.00;1.00;;;;;;;;5090379;27;45451;-77
2022/09/16 08:38:50;;;;;;;;;1.00;1.00;;;;;;;;5101619;27;46075;-79
2022/09/16 08:41:33;;;;;;;;;2.00;2.00;;;;;;;;5116496;27;45355;-79
2022/09/16 08:44:15;;;;;;;;;3.00;2.00;;;;;;;;5117097;27;45553;-78
2022/09/16 08:46:54;;;;;;;;;1.67;1.67;;;;;;;;5117031;27;45440;-78
2022/09/16 08:49:40;;;;;;;;;2.00;2.00;;;;;;;;5092886;27;47157;-79
2022/09/16 08:52:14;;;;;;;;;3.33;2.00;;;;;;;;5116873;27;45411;-78
2022/09/16 08:54:42;;;;;;;;;1.33;1.33;;;;;;;;5107639;27;45407;-78
2022/09/16 08:57:10;;;;;;;;;2.67;1.67;;;;;;;;5111523;27;45228;-79
2022/09/16 08:59:38;;;;;;;;;1.33;1.33;;;;;;;;5116774;27;46104;-79
2022/09/16 09:02:17;;;;;;;;;2.67;2.67;;;;;;;;5116582;27;45307;-78
2022/09/16 09:04:43;;;;;;;;;6.33;2.00;;;;;;;;5116774;27;45292;-79
2022/09/16 09:07:21;;;;;;;;;2.00;2.00;;;;;;;;5116870;27;45272;-74
2022/09/16 09:10:03;;;;;;;;;2.67;2.00;;;;;;;;5091302;27;46389;-76
2022/09/16 09:12:35;;;;;;;;;1.00;1.00;;;;;;;;5116571;27;45477;-76
2022/09/16 09:15:19;;;;;;;;;3.00;1.00;;;;;;;;5117074;27;45503;-75
2022/09/16 09:17:51;;;;;;;;;2.33;1.33;;;;;;;;5116634;27;45369;-75
2022/09/16 09:20:33;;;;;;;;;1.00;1.00;;;;;;;;5116763;27;46932;-76
2022/09/16 09:23:17;;;;;;;;;0.33;0.33;;;;;;;;5101721;27;45425;-75
2022/09/16 09:25:53;;;;;;;;;0.00;0.00;;;;;;;;5116726;27;45351;-76
2022/09/16 09:28:47;;;;;;;;;5.00;1.00;;;;;;;;5116719;27;45279;-75
2022/09/16 09:31:35;;;;;;;;;4.33;1.00;;;;;;;;5116039;27;47043;-75
2022/09/16 09:34:03;;;;;;;;;1.00;1.00;;;;;;;;5089718;27;45301;-76
2022/09/16 09:36:35;;;;;;;;;1.00;1.00;;;;;;;;5107029;27;45363;-75
2022/09/16 09:39:16;;;;;;;;;1.00;1.00;;;;;;;;5088718;27;45343;-75
2022/09/16 09:41:46;;;;;;;;;4.00;1.00;;;;;;;;5116102;27;46080;-75
2022/09/16 09:44:17;;;;;;;;;1.00;1.00;;;;;;;;5116543;27;45468;-73
2022/09/16 09:46:46;;;;;;;;;1.00;1.00;;;;;;;;5102003;27;45291;-75
2022/09/16 09:49:26;;;;;;;;;2.00;0.33;;;;;;;;5083515;27;45470;-75
2022/09/16 09:51:57;;;;;;;;;1.00;1.00;;;;;;;;5109899;27;46229;-75
2022/09/16 09:54:26;;;;;;;;;4.00;2.33;;;;;;;;5112749;27;45484;-74
2022/09/16 09:57:12;;;;;;;;;2.00;2.00;;;;;;;;5113308;27;45394;-76
2022/09/16 09:59:37;;;;;;;;;1.00;1.00;;;;;;;;5119233;27;45640;-75
2022/09/16 10:02:12;;;;;;;;;2.33;1.00;;;;;;;;5119192;27;46909;-75
2022/09/16 10:04:38;;;;;;;;;2.00;2.00;;;;;;;;5119735;27;45421;-76
2022/09/16 10:07:04;;;;;;;;;1.33;1.00;;;;;;;;5119873;27;45422;-76
2022/09/16 10:09:29;;;;;;;;;2.33;2.00;;;;;;;;5114215;27;45285;-78
2022/09/16 10:11:55;;;;;;;;;2.00;2.00;;;;;;;;5110516;27;46019;-75
2022/09/16 10:14:22;;;;;;;;;2.00;1.00;;;;;;;;5105139;27;45370;-78
2022/09/16 10:16:49;;;;;;;;;2.67;1.67;;;;;;;;5119331;27;45428;-80
2022/09/16 10:19:19;;;;;;;;;2.00;1.00;;;;;;;;5119419;27;45358;-75
2022/09/16 10:21:47;;;;;;;;;3.00;2.00;;;;;;;;5113956;27;47093;-74
2022/09/16 10:24:26;;;;;;;;;2.33;1.33;;;;;;;;5113620;27;45437;-75
2022/09/16 10:26:51;;;;;;;;;1.00;1.00;;;;;;;;5111143;27;45270;-74
2022/09/16 10:29:18;;;;;;;;;3.00;1.00;;;;;;;;5113301;27;45425;-76
2022/09/16 10:31:44;;;;;;;;;1.00;1.00;;;;;;;;5116408;27;46901;-78
2022/09/16 10:34:31;;;;;;;;;2.67;2.00;;;;;;;;5107396;27;45374;-77
2022/09/16 10:37:10;;;;;;;;;2.00;1.00;;;;;;;;5109379;27;45617;-74
2022/09/16 10:39:36;;;;;;;;;4.33;1.67;;;;;;;;5119429;27;45466;-75
2022/09/16 10:42:03;;;;;;;;;1.00;1.00;;;;;;;;5118999;27;45378;-75
2022/09/16 10:44:30;;;;;;;;;2.00;2.00;;;;;;;;5118649;27;45319;-75
2022/09/16 10:47:09;;;;;;;;;0.00;0.00;;;;;;;;5119300;27;45412;-75
2022/09/16 10:49:37;;;;;;;;;2.33;0.00;;;;;;;;5114040;27;45392;-75
2022/09/16 10:52:07;;;;;;;;;1.00;1.00;;;;;;;;5114457;27;46240;-72
2022/09/16 10:54:32;;;;;;;;;1.00;1.00;;;;;;;;5118572;27;45795;-73
2022/09/16 10:56:57;;;;;;;;;1.00;1.00;;;;;;;;5119045;27;45352;-73
2022/09/16 10:59:23;;;;;;;;;1.00;1.00;;;;;;;;5118540;27;45470;-75
2022/09/16 11:02:11;;;;;;;;;0.00;0.00;;;;;;;;5118647;27;45259;-75
2022/09/16 11:04:49;;;;;;;;;2.67;1.33;;;;;;;;5091812;27;45381;-75
2022/09/16 11:07:30;;;;;;;;;1.00;1.00;;;;;;;;5118854;27;45424;-75
2022/09/16 11:10:05;;;;;;;;;1.33;1.00;;;;;;;;5109365;27;45481;-74
2022/09/16 11:12:36;;;;;;;;;1.00;1.00;;;;;;;;5114327;27;45984;-74
2022/09/16 11:15:16;;;;;;;;;1.00;1.00;;;;;;;;5118382;27;45294;-74
2022/09/16 11:17:41;;;;;;;;;1.00;1.00;;;;;;;;5118699;27;45392;-74
2022/09/16 11:20:29;;;;;;;;;1.00;1.00;;;;;;;;5118777;27;45710;-74
2022/09/16 11:23:22;;;;;;;;;0.33;0.33;;;;;;;;5107373;27;46107;-74
2022/09/16 11:25:50;;;;;;;;;1.00;1.00;;;;;;;;5097910;27;46247;-74
2022/09/16 11:28:31;;;;;;;;;1.00;1.00;;;;;;;;5118176;27;45355;-75
2022/09/16 11:31:04;;;;;;;;;0.00;0.00;;;;;;;;5104158;27;45418;-75
2022/09/16 11:33:39;;;;;;;;;0.67;0.67;;;;;;;;5097037;27;45425;-75
2022/09/16 11:36:29;;;;;;;;;0.67;0.00;;;;;;;;5107770;27;45454;-74
2022/09/16 11:38:54;;;;;;;;;0.67;0.67;;;;;;;;5117921;27;45354;-75
2022/09/16 11:41:25;;;;;;;;;0.00;0.00;;;;;;;;5118137;27;45405;-75
2022/09/16 11:44:07;;;;;;;;;0.00;0.00;;;;;;;;5117620;27;47367;-75
2022/09/16 11:46:39;;;;;;;;;1.00;1.00;;;;;;;;5117981;27;45416;-75
2022/09/16 11:49:07;;;;;;;;;2.33;1.00;;;;;;;;5103683;27;45349;-74
2022/09/16 11:51:51;;;;;;;;;0.00;0.00;;;;;;;;5115512;27;45544;-75
2022/09/16 11:54:46;;;;;;;;;0.00;0.00;;;;;;;;5089439;27;47222;-74
2022/09/16 11:57:15;;;;;;;;;1.00;1.00;;;;;;;;5053620;28;45505;-75
2022/09/16 11:59:52;;;;;;;;;2.33;1.00;;;;;;;;5054417;28;45328;-75
2022/09/16 12:02:17;;;;;;;;;0.00;0.00;;;;;;;;5051688;28;45519;-75
2022/09/16 12:04:48;;;;;;;;;0.67;0.67;;;;;;;;5042141;28;45476;-74
2022/09/16 12:07:13;;;;;;;;;0.33;0.33;;;;;;;;5053958;28;45528;-75
2022/09/16 12:09:40;;;;;;;;;2.33;1.00;;;;;;;;5054345;28;45467;-75
2022/09/16 12:12:27;;;;;;;;;0.33;0.33;;;;;;;;5054072;28;45384;-75
2022/09/16 12:14:55;;;;;;;;;0.67;0.67;;;;;;;;5053088;28;46136;-75
2022/09/16 12:17:27;;;;;;;;;1.33;1.33;;;;;;;;5053859;28;45456;-75
2022/09/16 12:20:08;;;;;;;;;3.00;1.00;;;;;;;;5046890;28;45378;-77
2022/09/16 12:22:37;;;;;;;;;1.00;1.00;;;;;;;;5047902;28;45503;-76
2022/09/16 12:25:11;;;;;;;;;0.00;0.00;;;;;;;;5041017;28;45400;-76
2022/09/16 12:27:45;;;;;;;;;1.33;1.00;;;;;;;;5053720;28;45377;-77
2022/09/16 12:30:15;;;;;;;;;0.00;0.00;;;;;;;;5054090;28;45537;-78
2022/09/16 12:32:48;;;;;;;;;1.00;0.00;;;;;;;;5048449;28;45443;-78
2022/09/16 12:35:16;;;;;;;;;3.00;1.00;;;;;;;;5111456;27;46260;-79
2022/09/16 12:37:41;;;;;;;;;4.33;1.00;;;;;;;;5107229;27;45400;-75
2022/09/16 12:40:15;;;;;;;;;2.67;1.00;;;;;;;;5117126;27;45256;-76
2022/09/16 12:42:43;;;;;;;;;1.00;1.00;;;;;;;;5108449;27;45536;-77
2022/09/16 12:45:11;;;;;;;;;0.00;0.00;;;;;;;;5111685;27;47101;-77
2022/09/16 12:48:01;;;;;;;;;2.00;1.67;;;;;;;;5117365;27;45428;-77
2022/09/16 12:50:26;;;;;;;;;0.67;0.67;;;;;;;;5117461;27;45265;-77
2022/09/16 12:53:10;;;;;;;;;1.67;1.67;;;;;;;;5105643;27;45558;-77
2022/09/16 12:55:54;;;;;;;;;1.67;0.33;;;;;;;;5102353;27;47059;-76
2022/09/16 12:58:30;;;;;;;;;1.00;1.00;;;;;;;;5117283;27;45316;-77
2022/09/16 13:01:08;;;;;;;;;0.33;0.33;;;;;;;;5117318;27;45401;-78
2022/09/16 13:03:36;;;;;;;;;2.00;1.00;;;;;;;;5117056;27;45479;-78
2022/09/16 13:06:04;;;;;;;;;0.00;0.00;;;;;;;;5116896;27;45373;-77
2022/09/16 13:08:31;;;;;;;;;2.33;1.67;;;;;;;;5116830;27;45462;-77
2022/09/16 13:10:59;;;;;;;;;2.33;1.00;;;;;;;;5116626;27;45460;-78
2022/09/16 13:13:33;;;;;;;;;0.33;0.33;;;;;;;;5107078;27;45381;-77
2022/09/16 13:15:59;;;;;;;;;1.00;0.00;;;;;;;;5112437;27;46441;-77
2022/09/16 13:18:36;;;;;;;;;0.67;0.67;;;;;;;;5116780;27;45400;-77
2022/09/16 13:21:31;;;;;;;;;0.67;0.67;;;;;;;;5116714;27;45461;-77
2022/09/16 13:24:09;;;;;;;;;1.00;1.00;;;;;;;;5091426;27;45284;-79
2022/09/16 13:26:42;;;;;;;;;1.00;1.00;;;;;;;;5088986;27;46166;-78
2022/09/16 13:29:23;;;;;;;;;0.00;0.00;;;;;;;;5120532;27;45431;-78
2022/09/16 13:31:48;;;;;;;;;3.00;0.00;;;;;;;;5090491;27;45351;-77
2022/09/16 13:34:14;;;;;;;;;1.00;1.00;;;;;;;;5109008;27;45374;-77
2022/09/16 13:36:40;;;;;;;;;0.00;0.00;;;;;;;;5110071;27;46123;-78
2022/09/16 13:39:09;;;;;;;;;0.00;0.00;;;;;;;;5120051;27;45439;-77
2022/09/16 13:41:39;;;;;;;;;1.00;1.00;;;;;;;;5120549;27;45362;-77
2022/09/16 13:44:24;;;;;;;;;1.00;1.00;;;;;;;;5120226;27;45618;-76
2022/09/16 13:46:49;;;;;;;;;1.00;1.00;;;;;;;;5119758;27;46937;-76
2022/09/16 13:49:17;;;;;;;;;2.00;1.00;;;;;;;;5119950;27;45337;-77
2022/09/16 13:51:43;;;;;;;;;2.00;0.00;;;;;;;;5117920;27;45284;-77
2022/09/16 13:54:24;;;;;;;;;1.00;1.00;;;;;;;;5118706;27;45308;-77
2022/09/16 13:57:07;;;;;;;;;0.33;0.33;;;;;;;;5101365;27;47378;-76
2022/09/16 13:59:33;;;;;;;;;0.33;0.33;;;;;;;;5094404;27;45181;-77
2022/09/16 14:02:09;;;;;;;;;3.00;2.00;;;;;;;;5106008;27;45465;-77
2022/09/16 14:04:48;;;;;;;;;1.00;1.00;;;;;;;;5092457;27;45334;-76
2022/09/16 14:07:22;;;;;;;;;0.67;0.67;;;;;;;;5118942;27;45452;-76
2022/09/16 14:10:08;;;;;;;;;1.00;1.00;;;;;;;;5119651;27;45353;-77
2022/09/16 14:12:42;;;;;;;;;1.00;1.00;;;;;;;;5116790;27;45330;-77
2022/09/16 14:15:08;;;;;;;;;0.33;0.33;;;;;;;;5090786;27;45436;-77
2022/09/16 14:17:38;;;;;;;;;2.00;1.00;;;;;;;;5119519;27;45413;-77
2022/09/16 14:20:04;;;;;;;;;0.00;0.00;;;;;;;;5119731;27;45520;-77
2022/09/16 14:22:30;;;;;;;;;2.00;1.00;;;;;;;;5119185;27;45372;-76
2022/09/16 14:24:55;;;;;;;;;1.67;1.00;;;;;;;;5119002;27;45295;-77
2022/09/16 14:27:28;;;;;;;;;1.00;1.00;;;;;;;;5119457;27;46172;-77
2022/09/16 14:29:57;;;;;;;;;2.00;2.00;;;;;;;;5119277;27;45371;-77
2022/09/16 14:32:26;;;;;;;;;1.00;1.00;;;;;;;;5111681;27;45368;-78
2022/09/16 14:34:53;;;;;;;;;0.00;0.00;;;;;;;;5113314;27;45552;-77
2022/09/16 14:37:19;;;;;;;;;2.00;0.67;;;;;;;;5108588;27;47264;-77
2022/09/16 14:39:44;;;;;;;;;1.67;1.00;;;;;;;;5118491;27;45368;-77
2022/09/16 14:42:14;;;;;;;;;1.00;1.00;;;;;;;;5119494;27;45334;-77
2022/09/16 14:44:41;;;;;;;;;1.33;0.67;;;;;;;;5108071;27;45343;-77
2022/09/16 14:47:13;;;;;;;;;0.67;0.67;;;;;;;;5115753;27;45422;-77
2022/09/16 14:49:38;;;;;;;;;0.33;0.33;;;;;;;;5119225;27;45350;-78
2022/09/16 14:52:03;;;;;;;;;0.00;0.00;;;;;;;;5118325;27;45354;-77
2022/09/16 14:54:29;;;;;;;;;2.00;0.00;;;;;;;;5106492;27;45319;-76
2022/09/16 14:56:55;;;;;;;;;1.67;0.33;;;;;;;;5119246;27;46061;-76
2022/09/16 14:59:22;;;;;;;;;0.33;0.33;;;;;;;;5118847;27;45520;-77
2022/09/16 15:01:47;;;;;;;;;1.00;1.00;;;;;;;;5119026;27;45420;-77